createdAt,value
2017-08-01T00:00:32.370Z,18.29
2017-08-01T00:01:41.898Z,18.3
2017-08-01T00:02:51.100Z,18.27
2017-08-01T00:04:00.305Z,18.3
2017-08-01T00:05:10.497Z,18.3
2017-08-01T00:06:19.701Z,18.29
2017-08-01T00:07:29.561Z,18.27
2017-08-01T00:08:38.766Z,18.33
2017-08-01T00:09:48.122Z,18.27
2017-08-01T00:10:58.300Z,18.27
2017-08-01T00:12:07.506Z,18.27
2017-08-01T00:13:17.034Z,18.27
2017-08-01T00:14:26.556Z,18.36
2017-08-01T00:15:35.814Z,18.3
2017-08-01T00:16:45.022Z,18.26
2017-08-01T00:17:54.548Z,18.29
2017-08-01T00:19:03.435Z,18.3
2017-08-01T00:20:13.946Z,18.32
2017-08-01T00:21:23.577Z,18.29
2017-08-01T00:22:33.100Z,18.3
2017-08-01T00:23:42.631Z,18.29
2017-08-01T00:24:51.837Z,18.33
2017-08-01T00:26:00.718Z,18.32
2017-08-01T00:27:10.249Z,18.44
2017-08-01T00:28:19.779Z,18.32
2017-08-01T00:29:28.984Z,18.32
2017-08-01T00:30:38.519Z,18.32
2017-08-01T00:31:47.725Z,18.32
2017-08-01T00:32:57.029Z,18.33
2017-08-01T00:34:06.939Z,18.33
2017-08-01T00:35:16.461Z,18.36
2017-08-01T00:36:25.342Z,18.37
2017-08-01T00:37:34.224Z,18.44
2017-08-01T00:38:43.727Z,18.42
2017-08-01T00:39:52.936Z,18.41
2017-08-01T00:41:02.150Z,18.39
2017-08-01T00:42:11.357Z,18.44
2017-08-01T00:43:20.239Z,18.42
2017-08-01T00:44:29.276Z,18.36
2017-08-01T00:45:38.160Z,18.42
2017-08-01T00:46:47.372Z,18.37
2017-08-01T00:47:56.906Z,18.37
2017-08-01T00:49:07.080Z,18.37
2017-08-01T00:50:16.487Z,18.44
2017-08-01T00:51:26.020Z,18.41
2017-08-01T00:52:34.905Z,18.41
2017-08-01T00:53:44.758Z,18.39
2017-08-01T00:54:54.290Z,18.32
2017-08-01T00:56:04.248Z,18.35
2017-08-01T00:57:13.134Z,18.3
2017-08-01T00:58:22.345Z,18.27
2017-08-01T00:59:31.558Z,18.32
2017-08-01T01:00:40.444Z,18.33
2017-08-01T01:01:49.475Z,18.33
2017-08-01T01:02:58.683Z,18.15
2017-08-01T01:04:07.904Z,18.26
2017-08-01T01:05:17.106Z,18.14
2017-08-01T01:06:26.633Z,18.3
2017-08-01T01:07:36.310Z,18.15
2017-08-01T01:08:45.836Z,18.26
2017-08-01T01:09:55.686Z,18.29
2017-08-01T01:11:04.893Z,18.1
2017-08-01T01:12:13.784Z,18.26
2017-08-01T01:13:22.772Z,18.2
2017-08-01T01:14:32.002Z,18.2
2017-08-01T01:15:42.180Z,18.25
2017-08-01T01:16:51.711Z,18.05
2017-08-01T01:18:01.242Z,18.23
2017-08-01T01:19:10.276Z,18.18
2017-08-01T01:20:20.454Z,18.18
2017-08-01T01:21:29.662Z,18.2
2017-08-01T01:22:39.192Z,18.2
2017-08-01T01:23:48.395Z,18.21
2017-08-01T01:24:57.654Z,18.21
2017-08-01T01:26:08.153Z,18.18
2017-08-01T01:27:17.692Z,18.23
2017-08-01T01:28:27.223Z,18.11
2017-08-01T01:29:36.101Z,18.15
2017-08-01T01:30:46.102Z,18.23
2017-08-01T01:31:55.313Z,18.32
2017-08-01T01:33:04.850Z,18.25
2017-08-01T01:34:13.734Z,18.29
2017-08-01T01:35:22.938Z,18.33
2017-08-01T01:36:32.320Z,18.27
2017-08-01T01:37:42.186Z,18.32
2017-08-01T01:38:51.390Z,18.32
2017-08-01T01:40:00.595Z,18.21
2017-08-01T01:41:09.799Z,18.29
2017-08-01T01:42:19.156Z,18.33
2017-08-01T01:43:28.041Z,18.32
2017-08-01T01:44:37.252Z,18.26
2017-08-01T01:45:46.779Z,18.3
2017-08-01T01:46:56.307Z,18.3
2017-08-01T01:48:06.459Z,18.27
2017-08-01T01:49:15.663Z,18.36
2017-08-01T01:50:24.873Z,18.33
2017-08-01T01:51:34.725Z,18.36
2017-08-01T01:52:43.931Z,18.3
2017-08-01T01:53:52.964Z,18.32
2017-08-01T01:55:02.169Z,18.3
2017-08-01T01:56:11.414Z,18.32
2017-08-01T01:57:20.294Z,18.25
2017-08-01T01:58:30.144Z,18.27
2017-08-01T01:59:39.406Z,18.29
2017-08-01T02:00:49.592Z,18.32
2017-08-01T02:01:58.473Z,18.27
2017-08-01T02:03:08.336Z,18.37
2017-08-01T02:04:17.871Z,18.33
2017-08-01T02:05:27.075Z,18.33
2017-08-01T02:06:36.603Z,18.27
2017-08-01T02:07:45.810Z,18.29
2017-08-01T02:08:55.016Z,18.35
2017-08-01T02:10:04.225Z,18.3
2017-08-01T02:11:13.115Z,18.32
2017-08-01T02:12:22.968Z,18.26
2017-08-01T02:13:32.499Z,18.3
2017-08-01T02:14:42.360Z,18.26
2017-08-01T02:15:51.890Z,18.3
2017-08-01T02:17:01.617Z,18.32
2017-08-01T02:18:11.143Z,18.35
2017-08-01T02:19:20.028Z,18.32
2017-08-01T02:20:29.237Z,18.32
2017-08-01T02:21:38.450Z,18.37
2017-08-01T02:22:47.409Z,18.37
2017-08-01T02:23:57.263Z,18.41
2017-08-01T02:25:09.675Z,18.42
2017-08-01T02:26:19.535Z,18.41
2017-08-01T02:27:28.412Z,18.36
2017-08-01T02:28:37.994Z,18.36
2017-08-01T02:29:47.521Z,18.35
2017-08-01T02:30:56.409Z,18.32
2017-08-01T02:32:05.942Z,18.36
2017-08-01T02:33:15.477Z,18.3
2017-08-01T02:34:25.951Z,18.35
2017-08-01T02:35:35.484Z,18.45
2017-08-01T02:36:45.343Z,18.35
2017-08-01T02:37:54.545Z,18.39
2017-08-01T02:39:04.400Z,18.32
2017-08-01T02:40:13.929Z,18.32
2017-08-01T02:41:23.469Z,18.33
2017-08-01T02:42:32.999Z,18.3
2017-08-01T02:43:42.546Z,18.29
2017-08-01T02:44:52.111Z,18.32
2017-08-01T02:46:02.542Z,18.36
2017-08-01T02:47:12.070Z,18.33
2017-08-01T02:48:21.923Z,18.29
2017-08-01T02:49:31.142Z,18.33
2017-08-01T02:50:40.678Z,18.27
2017-08-01T02:51:50.242Z,18.29
2017-08-01T02:52:59.779Z,18.3
2017-08-01T02:54:08.990Z,18.29
2017-08-01T02:55:19.175Z,18.33
2017-08-01T02:56:28.705Z,18.29
2017-08-01T02:57:38.234Z,18.32
2017-08-01T02:58:48.089Z,18.3
2017-08-01T02:59:57.618Z,18.3
2017-08-01T03:01:07.149Z,18.29
2017-08-01T03:02:17.324Z,18.26
2017-08-01T03:03:27.327Z,18.32
2017-08-01T03:04:36.865Z,18.27
2017-08-01T03:05:46.069Z,18.32
2017-08-01T03:06:54.948Z,18.33
2017-08-01T03:08:04.473Z,18.33
2017-08-01T03:09:13.829Z,18.33
2017-08-01T03:10:23.357Z,18.3
2017-08-01T03:11:32.563Z,18.3
2017-08-01T03:12:42.094Z,18.33
2017-08-01T03:13:51.308Z,18.33
2017-08-01T03:15:01.268Z,18.15
2017-08-01T03:16:10.795Z,18.27
2017-08-01T03:17:19.999Z,18.32
2017-08-01T03:18:29.206Z,18.3
2017-08-01T03:19:38.088Z,18.29
2017-08-01T03:20:47.295Z,18.33
2017-08-01T03:21:56.506Z,18.27
2017-08-01T03:23:06.364Z,18.29
2017-08-01T03:24:15.889Z,18.27
2017-08-01T03:25:25.416Z,18.32
2017-08-01T03:26:34.787Z,18.3
2017-08-01T03:27:44.329Z,18.29
2017-08-01T03:28:53.852Z,18.32
2017-08-01T03:30:03.385Z,18.32
2017-08-01T03:31:12.923Z,18.29
2017-08-01T03:32:22.778Z,18.3
2017-08-01T03:33:31.987Z,18.35
2017-08-01T03:34:41.518Z,18.27
2017-08-01T03:35:50.731Z,18.3
2017-08-01T03:36:59.939Z,18.3
2017-08-01T03:38:10.174Z,18.29
2017-08-01T03:39:19.384Z,18.32
2017-08-01T03:40:28.264Z,18.32
2017-08-01T03:41:37.798Z,18.29
2017-08-01T03:42:47.658Z,18.33
2017-08-01T03:43:57.289Z,18.33
2017-08-01T03:45:06.828Z,18.29
2017-08-01T03:46:16.359Z,18.32
2017-08-01T03:47:25.890Z,18.32
2017-08-01T03:48:34.778Z,18.3
2017-08-01T03:49:44.035Z,18.3
2017-08-01T03:50:53.888Z,18.27
2017-08-01T03:52:02.770Z,18.3
2017-08-01T03:53:12.302Z,18.3
2017-08-01T03:54:21.207Z,18.32
2017-08-01T03:55:30.884Z,18.3
2017-08-01T03:56:40.411Z,18.36
2017-08-01T03:57:49.295Z,18.35
2017-08-01T03:58:58.497Z,18.41
2017-08-01T04:00:08.346Z,18.36
2017-08-01T04:01:17.988Z,18.35
2017-08-01T04:02:27.195Z,18.33
2017-08-01T04:03:36.400Z,18.3
2017-08-01T04:04:45.927Z,18.3
2017-08-01T04:05:55.131Z,18.32
2017-08-01T04:07:04.261Z,18.32
2017-08-01T04:08:13.793Z,18.29
2017-08-01T04:09:23.653Z,18.3
2017-08-01T04:10:32.862Z,18.32
2017-08-01T04:11:42.391Z,18.32
2017-08-01T04:12:52.069Z,18.35
2017-08-01T04:14:00.952Z,18.32
2017-08-01T04:15:10.824Z,18.29
2017-08-01T04:16:20.070Z,18.3
2017-08-01T04:17:29.615Z,18.39
2017-08-01T04:18:39.567Z,18.42
2017-08-01T04:19:48.450Z,18.32
2017-08-01T04:20:57.341Z,18.41
2017-08-01T04:22:06.876Z,18.39
2017-08-01T04:23:16.405Z,18.3
2017-08-01T04:24:26.085Z,18.32
2017-08-01T04:25:35.621Z,18.3
2017-08-01T04:26:44.826Z,18.32
2017-08-01T04:27:54.036Z,18.37
2017-08-01T04:29:03.242Z,18.37
2017-08-01T04:30:12.503Z,18.33
2017-08-01T04:31:21.715Z,18.3
2017-08-01T04:32:31.248Z,18.29
2017-08-01T04:33:40.132Z,18.29
2017-08-01T04:34:50.305Z,18.26
2017-08-01T04:35:59.991Z,18.35
2017-08-01T04:37:09.524Z,18.27
2017-08-01T04:38:19.383Z,18.3
2017-08-01T04:39:28.915Z,18.3
2017-08-01T04:40:38.126Z,18.29
2017-08-01T04:41:47.387Z,18.26
2017-08-01T04:42:57.564Z,18.27
2017-08-01T04:44:07.093Z,18.29
2017-08-01T04:45:16.301Z,18.32
2017-08-01T04:46:25.500Z,18.29
2017-08-01T04:47:36.071Z,18.29
2017-08-01T04:48:45.598Z,18.26
2017-08-01T04:49:55.129Z,18.25
2017-08-01T04:51:04.663Z,18.29
2017-08-01T04:52:14.513Z,18.3
2017-08-01T04:53:23.873Z,18.3
2017-08-01T04:54:33.075Z,18.33
2017-08-01T04:55:42.613Z,18.27
2017-08-01T04:56:52.142Z,18.3
2017-08-01T04:58:01.672Z,18.36
2017-08-01T04:59:11.305Z,18.37
2017-08-01T05:00:20.835Z,18.41
2017-08-01T05:01:30.399Z,18.36
2017-08-01T05:02:39.698Z,18.37
2017-08-01T05:03:49.230Z,18.37
2017-08-01T05:04:58.916Z,18.36
2017-08-01T05:06:08.445Z,18.37
2017-08-01T05:07:17.975Z,18.36
2017-08-01T05:08:27.188Z,18.39
2017-08-01T05:09:36.087Z,18.45
2017-08-01T05:10:45.037Z,18.5
2017-08-01T05:11:54.250Z,18.52
2017-08-01T05:13:03.781Z,18.45
2017-08-01T05:14:13.638Z,18.5
2017-08-01T05:15:23.171Z,18.47
2017-08-01T05:16:32.850Z,18.52
2017-08-01T05:17:42.394Z,18.48
2017-08-01T05:18:51.278Z,18.55
2017-08-01T05:20:00.484Z,18.52
2017-08-01T05:21:09.378Z,18.54
2017-08-01T05:22:18.907Z,18.55
2017-08-01T05:23:28.119Z,18.57
2017-08-01T05:24:37.333Z,18.55
2017-08-01T05:25:46.224Z,18.54
2017-08-01T05:26:55.123Z,18.62
2017-08-01T05:28:04.663Z,18.65
2017-08-01T05:29:14.220Z,18.65
2017-08-01T05:30:23.428Z,18.69
2017-08-01T05:31:32.632Z,18.62
2017-08-01T05:32:41.839Z,18.65
2017-08-01T05:33:51.059Z,18.65
2017-08-01T05:35:00.274Z,18.67
2017-08-01T05:36:09.478Z,18.7
2017-08-01T05:37:19.009Z,18.69
2017-08-01T05:38:28.218Z,18.67
2017-08-01T05:39:37.749Z,18.76
2017-08-01T05:40:46.955Z,18.65
2017-08-01T05:41:56.174Z,18.67
2017-08-01T05:43:06.376Z,18.65
2017-08-01T05:44:15.956Z,18.78
2017-08-01T05:45:25.161Z,18.8
2017-08-01T05:46:34.693Z,18.76
2017-08-01T05:47:43.883Z,18.72
2017-08-01T05:48:53.091Z,18.87
2017-08-01T05:50:01.974Z,18.85
2017-08-01T05:51:11.504Z,18.76
2017-08-01T05:52:21.357Z,18.72
2017-08-01T05:53:30.498Z,18.75
2017-08-01T05:54:40.358Z,18.78
2017-08-01T05:55:49.247Z,18.76
2017-08-01T05:56:58.781Z,18.78
2017-08-01T05:58:08.313Z,18.76
2017-08-01T05:59:17.896Z,18.76
2017-08-01T06:00:27.785Z,18.78
2017-08-01T06:01:36.990Z,18.8
2017-08-01T06:02:46.198Z,18.81
2017-08-01T06:03:55.982Z,18.82
2017-08-01T06:05:05.473Z,18.81
2017-08-01T06:06:15.550Z,18.87
2017-08-01T06:07:24.831Z,18.82
2017-08-01T06:08:34.118Z,18.82
2017-08-01T06:09:43.649Z,19.02
2017-08-01T06:10:52.684Z,18.95
2017-08-01T06:12:01.906Z,18.92
2017-08-01T06:13:11.438Z,18.92
2017-08-01T06:14:20.325Z,18.98
2017-08-01T06:15:30.182Z,19.07
2017-08-01T06:16:39.863Z,18.98
2017-08-01T06:17:49.074Z,19.06
2017-08-01T06:18:58.931Z,19.11
2017-08-01T06:20:08.465Z,19.04
2017-08-01T06:21:17.679Z,19.16
2017-08-01T06:22:27.687Z,19.11
2017-08-01T06:23:37.540Z,19.06
2017-08-01T06:24:46.431Z,19.08
2017-08-01T06:25:56.321Z,19.08
2017-08-01T06:27:05.860Z,19.19
2017-08-01T06:28:14.798Z,19.13
2017-08-01T06:29:24.649Z,19.1
2017-08-01T06:30:34.503Z,19.04
2017-08-01T06:31:43.719Z,19.06
2017-08-01T06:32:53.256Z,19.02
2017-08-01T06:34:02.776Z,19.14
2017-08-01T06:35:11.987Z,19.13
2017-08-01T06:36:21.204Z,19.13
2017-08-01T06:37:30.413Z,19.21
2017-08-01T06:38:39.304Z,19.18
2017-08-01T06:39:48.521Z,19.16
2017-08-01T06:40:58.386Z,19.18
2017-08-01T06:42:07.594Z,19.16
2017-08-01T06:43:17.122Z,19.23
2017-08-01T06:44:26.393Z,19.16
2017-08-01T06:45:36.206Z,19.23
2017-08-01T06:46:45.743Z,19.22
2017-08-01T06:47:55.275Z,19.16
2017-08-01T06:49:04.158Z,19.18
2017-08-01T06:50:13.368Z,19.26
2017-08-01T06:51:22.413Z,19.14
2017-08-01T06:52:31.947Z,19.22
2017-08-01T06:53:41.486Z,19.32
2017-08-01T06:54:50.371Z,19.28
2017-08-01T06:55:59.256Z,19.32
2017-08-01T06:57:09.357Z,19.31
2017-08-01T06:58:18.574Z,19.33
2017-08-01T06:59:28.111Z,19.29
2017-08-01T07:00:37.319Z,19.43
2017-08-01T07:01:46.537Z,19.39
2017-08-01T07:02:56.137Z,19.37
2017-08-01T07:04:05.670Z,19.37
2017-08-01T07:05:14.903Z,19.36
2017-08-01T07:06:24.975Z,19.44
2017-08-01T07:07:34.585Z,19.44
2017-08-01T07:08:45.015Z,19.47
2017-08-01T07:09:54.603Z,19.48
2017-08-01T07:11:04.191Z,19.5
2017-08-01T07:12:13.821Z,19.44
2017-08-01T07:13:24.081Z,19.43
2017-08-01T07:14:34.468Z,19.61
2017-08-01T07:15:44.678Z,19.61
2017-08-01T07:16:54.396Z,19.63
2017-08-01T07:18:04.416Z,19.62
2017-08-01T07:19:13.658Z,19.65
2017-08-01T07:20:23.258Z,19.65
2017-08-01T07:21:32.898Z,19.69
2017-08-01T07:22:42.329Z,19.63
2017-08-01T07:23:51.625Z,19.66
2017-08-01T07:25:00.943Z,19.61
2017-08-01T07:26:10.507Z,19.68
2017-08-01T07:27:19.719Z,19.74
2017-08-01T07:28:29.566Z,19.74
2017-08-01T07:29:39.306Z,19.76
2017-08-01T07:30:48.626Z,19.78
2017-08-01T07:31:58.640Z,19.76
2017-08-01T07:33:07.910Z,19.84
2017-08-01T07:34:17.378Z,19.83
2017-08-01T07:35:26.887Z,19.94
2017-08-01T07:36:36.228Z,20.01
2017-08-01T07:38:14.921Z,19.96
2017-08-01T07:39:25.139Z,19.95
2017-08-01T07:40:35.541Z,19.91
2017-08-01T07:41:44.632Z,19.99
2017-08-01T07:42:54.209Z,19.96
2017-08-01T07:44:04.131Z,20.08
2017-08-01T07:45:13.691Z,20.08
2017-08-01T07:46:24.510Z,20.06
2017-08-01T07:47:33.758Z,20.11
2017-08-01T07:48:43.027Z,20.14
2017-08-01T07:49:52.576Z,20.13
2017-08-01T07:51:02.115Z,20.18
2017-08-01T07:52:11.336Z,20.24
2017-08-01T07:53:20.873Z,20.35
2017-08-01T07:54:30.505Z,20.33
2017-08-01T07:55:39.713Z,20.39
2017-08-01T07:56:49.267Z,20.35
2017-08-01T07:57:58.530Z,20.52
2017-08-01T07:59:08.071Z,20.62
2017-08-01T08:00:17.609Z,20.67
2017-08-01T08:01:26.714Z,20.74
2017-08-01T08:02:36.003Z,20.84
2017-08-01T08:03:45.888Z,20.89
2017-08-01T08:04:54.784Z,20.92
2017-08-01T08:06:04.797Z,20.97
2017-08-01T08:07:14.333Z,20.94
2017-08-01T08:08:23.939Z,20.92
2017-08-01T08:09:33.158Z,20.87
2017-08-01T08:10:42.742Z,20.92
2017-08-01T08:11:52.458Z,20.95
2017-08-01T08:13:01.677Z,20.89
2017-08-01T08:14:11.217Z,20.97
2017-08-01T08:15:20.442Z,20.91
2017-08-01T08:16:29.990Z,20.97
2017-08-01T08:17:40.249Z,20.92
2017-08-01T08:18:49.516Z,20.94
2017-08-01T08:19:58.725Z,21.07
2017-08-01T08:21:07.937Z,21.14
2017-08-01T08:22:17.150Z,21.16
2017-08-01T08:23:26.831Z,21.29
2017-08-01T08:24:36.368Z,21.35
2017-08-01T08:25:45.931Z,21.37
2017-08-01T08:26:54.821Z,21.38
2017-08-01T08:28:04.061Z,21.43
2017-08-01T08:29:13.484Z,21.65
2017-08-01T08:30:22.644Z,21.59
2017-08-01T08:31:31.853Z,21.71
2017-08-01T08:32:41.399Z,21.69
2017-08-01T08:33:51.301Z,21.72
2017-08-01T08:35:00.605Z,21.68
2017-08-01T08:36:09.535Z,21.77
2017-08-01T08:37:18.448Z,21.8
2017-08-01T08:38:28.061Z,21.83
2017-08-01T08:39:37.274Z,21.84
2017-08-01T08:40:46.965Z,21.83
2017-08-01T08:41:56.513Z,21.79
2017-08-01T08:43:05.633Z,21.96
2017-08-01T08:44:14.866Z,22.03
2017-08-01T08:45:24.084Z,22
2017-08-01T08:46:33.449Z,22.06
2017-08-01T08:47:43.308Z,22.09
2017-08-01T08:48:52.202Z,22.2
2017-08-01T08:50:01.089Z,22.31
2017-08-01T08:51:10.650Z,22.25
2017-08-01T08:52:19.630Z,22.36
2017-08-01T08:53:28.552Z,22.46
2017-08-01T08:54:38.113Z,22.47
2017-08-01T08:55:48.343Z,22.43
2017-08-01T08:56:57.933Z,22.47
2017-08-01T08:58:07.964Z,22.62
2017-08-01T08:59:16.897Z,22.73
2017-08-01T09:00:25.805Z,22.76
2017-08-01T09:01:35.987Z,22.79
2017-08-01T09:02:45.269Z,22.76
2017-08-01T09:03:54.525Z,22.88
2017-08-01T09:05:03.767Z,22.94
2017-08-01T09:06:13.662Z,23.02
2017-08-01T09:07:23.581Z,23.1
2017-08-01T09:08:32.801Z,23.15
2017-08-01T09:09:42.726Z,23.19
2017-08-01T09:10:52.599Z,23.25
2017-08-01T09:12:02.547Z,23.1
2017-08-01T09:13:12.159Z,23.09
2017-08-01T09:14:21.785Z,23.15
2017-08-01T09:15:31.179Z,23.17
2017-08-01T09:16:40.578Z,23.16
2017-08-01T09:17:49.774Z,23.22
2017-08-01T09:18:59.259Z,23.04
2017-08-01T09:20:09.516Z,23.07
2017-08-01T09:21:19.007Z,23.13
2017-08-01T09:22:27.916Z,23.31
2017-08-01T09:23:37.800Z,23.31
2017-08-01T09:24:48.407Z,23.22
2017-08-01T09:25:57.625Z,23.38
2017-08-01T09:27:07.080Z,23.36
2017-08-01T09:28:17.274Z,23.43
2017-08-01T09:29:27.561Z,23.5
2017-08-01T09:30:36.887Z,23.57
2017-08-01T09:31:45.858Z,23.53
2017-08-01T09:32:55.544Z,23.53
2017-08-01T09:34:04.773Z,23.66
2017-08-01T09:35:14.611Z,23.72
2017-08-01T09:36:24.207Z,23.79
2017-08-01T09:37:33.432Z,23.53
2017-08-01T09:38:43.167Z,23.6
2017-08-01T09:39:53.085Z,23.75
2017-08-01T09:41:02.881Z,23.84
2017-08-01T09:42:11.865Z,23.84
2017-08-01T09:43:20.968Z,23.95
2017-08-01T09:44:30.710Z,23.97
2017-08-01T09:45:39.611Z,23.88
2017-08-01T09:46:48.836Z,23.85
2017-08-01T09:47:58.429Z,23.91
2017-08-01T09:49:07.972Z,23.94
2017-08-01T09:50:17.586Z,23.97
2017-08-01T09:51:26.620Z,23.94
2017-08-01T09:52:35.983Z,24.05
2017-08-01T09:53:45.540Z,24.18
2017-08-01T09:54:55.471Z,24.16
2017-08-01T09:56:04.959Z,24.15
2017-08-01T09:57:14.884Z,24.27
2017-08-01T09:58:24.924Z,24.25
2017-08-01T09:59:34.793Z,24.35
2017-08-01T10:00:44.339Z,24.52
2017-08-01T10:01:54.030Z,24.53
2017-08-01T10:03:03.275Z,24.53
2017-08-01T10:04:12.834Z,24.52
2017-08-01T10:05:22.064Z,24.6
2017-08-01T10:06:30.960Z,24.73
2017-08-01T10:07:39.899Z,24.76
2017-08-01T10:08:49.124Z,24.76
2017-08-01T10:09:58.712Z,24.77
2017-08-01T10:11:08.615Z,24.71
2017-08-01T10:12:17.507Z,24.76
2017-08-01T10:13:27.198Z,24.84
2017-08-01T10:14:36.740Z,24.78
2017-08-01T10:15:46.286Z,24.85
2017-08-01T10:16:55.186Z,24.85
2017-08-01T10:18:04.727Z,24.99
2017-08-01T10:19:14.392Z,25.02
2017-08-01T10:20:23.608Z,25.09
2017-08-01T10:21:33.153Z,25.14
2017-08-01T10:22:42.413Z,25.14
2017-08-01T10:23:51.305Z,25.1
2017-08-01T10:25:00.995Z,25.18
2017-08-01T10:26:10.862Z,25.2
2017-08-01T10:27:20.094Z,25.23
2017-08-01T10:28:29.345Z,25.13
2017-08-01T10:29:38.921Z,25.09
2017-08-01T10:30:48.518Z,25.2
2017-08-01T10:31:57.733Z,25.21
2017-08-01T10:33:07.292Z,25.32
2017-08-01T10:34:16.526Z,25.33
2017-08-01T10:35:26.387Z,25.35
2017-08-01T10:36:35.849Z,25.25
2017-08-01T10:37:45.516Z,25.35
2017-08-01T10:38:54.734Z,25.42
2017-08-01T10:40:04.270Z,25.38
2017-08-01T10:41:13.492Z,25.47
2017-08-01T10:42:22.439Z,25.42
2017-08-01T10:43:31.661Z,25.42
2017-08-01T10:44:40.904Z,25.42
2017-08-01T10:45:50.779Z,25.39
2017-08-01T10:46:59.997Z,25.42
2017-08-01T10:48:09.687Z,25.45
2017-08-01T10:49:19.227Z,25.42
2017-08-01T10:50:28.767Z,25.4
2017-08-01T10:51:38.627Z,25.47
2017-08-01T10:52:47.893Z,25.43
2017-08-01T10:53:57.810Z,25.4
2017-08-01T10:55:07.031Z,25.39
2017-08-01T10:56:16.643Z,25.43
2017-08-01T10:57:26.186Z,25.43
2017-08-01T10:58:35.730Z,25.45
2017-08-01T10:59:45.777Z,25.42
2017-08-01T11:00:54.990Z,25.42
2017-08-01T11:02:04.540Z,25.39
2017-08-01T11:03:13.784Z,25.36
2017-08-01T11:04:23.335Z,25.33
2017-08-01T11:05:33.576Z,25.27
2017-08-01T11:06:42.823Z,25.14
2017-08-01T11:07:52.040Z,25.13
2017-08-01T11:09:01.288Z,25.05
2017-08-01T11:10:11.153Z,24.98
2017-08-01T11:11:20.566Z,25.02
2017-08-01T11:12:29.839Z,25.14
2017-08-01T11:13:38.732Z,25.2
2017-08-01T11:14:47.948Z,25.14
2017-08-01T11:15:57.202Z,25.21
2017-08-01T11:17:06.815Z,25.09
2017-08-01T11:18:16.428Z,25.13
2017-08-01T11:19:25.901Z,25.09
2017-08-01T11:20:35.190Z,25.2
2017-08-01T11:21:44.646Z,25.09
2017-08-01T11:22:54.681Z,25.08
2017-08-01T11:24:04.545Z,25.17
2017-08-01T11:25:13.831Z,25.25
2017-08-01T11:26:23.894Z,25.35
2017-08-01T11:27:33.733Z,25.32
2017-08-01T11:28:43.324Z,25.4
2017-08-01T11:29:52.682Z,25.33
2017-08-01T11:31:02.510Z,25.38
2017-08-01T11:32:12.735Z,25.35
2017-08-01T11:33:22.451Z,25.24
2017-08-01T11:35:01.977Z,25.25
2017-08-01T11:36:11.307Z,25.33
2017-08-01T11:37:21.684Z,25.21
2017-08-01T11:38:30.664Z,25.21
2017-08-01T11:39:39.885Z,25.21
2017-08-01T11:40:49.953Z,25.1
2017-08-01T11:41:59.525Z,25.08
2017-08-01T11:43:08.906Z,25.05
2017-08-01T11:44:18.653Z,24.99
2017-08-01T11:45:28.305Z,24.99
2017-08-01T11:46:37.236Z,24.96
2017-08-01T11:47:46.782Z,24.88
2017-08-01T11:48:56.015Z,24.87
2017-08-01T11:50:05.259Z,24.9
2017-08-01T11:51:15.197Z,24.83
2017-08-01T11:52:24.735Z,24.8
2017-08-01T11:53:34.274Z,24.71
2017-08-01T11:54:43.813Z,24.78
2017-08-01T11:55:53.025Z,24.73
2017-08-01T11:57:02.940Z,24.69
2017-08-01T11:58:12.474Z,24.78
2017-08-01T11:59:21.695Z,24.67
2017-08-01T12:00:30.910Z,24.71
2017-08-01T12:01:40.135Z,24.78
2017-08-01T12:02:49.129Z,24.81
2017-08-01T12:03:58.690Z,24.81
2017-08-01T12:05:08.242Z,24.84
2017-08-01T12:06:18.106Z,24.9
2017-08-01T12:07:28.289Z,24.9
2017-08-01T12:08:37.434Z,25.02
2017-08-01T12:09:46.978Z,25.05
2017-08-01T12:10:56.203Z,25.03
2017-08-01T12:12:05.115Z,25.14
2017-08-01T12:13:14.653Z,25.14
2017-08-01T12:14:24.266Z,25.1
2017-08-01T12:15:33.605Z,25.1
2017-08-01T12:16:43.204Z,25.15
2017-08-01T12:17:52.154Z,25.17
2017-08-01T12:19:01.720Z,25.13
2017-08-01T12:20:11.881Z,24.99
2017-08-01T12:21:21.423Z,25.02
2017-08-01T12:22:30.967Z,25.02
2017-08-01T12:23:40.514Z,24.93
2017-08-01T12:24:49.736Z,24.88
2017-08-01T12:25:59.801Z,24.84
2017-08-01T12:27:09.658Z,24.81
2017-08-01T12:28:19.197Z,24.83
2017-08-01T12:29:28.737Z,24.85
2017-08-01T12:30:37.961Z,24.77
2017-08-01T12:31:47.290Z,24.68
2017-08-01T12:32:56.507Z,24.73
2017-08-01T12:34:06.047Z,24.73
2017-08-01T12:35:15.268Z,24.71
2017-08-01T12:36:24.802Z,24.61
2017-08-01T12:37:34.439Z,24.61
2017-08-01T12:38:43.652Z,24.76
2017-08-01T12:39:52.892Z,24.84
2017-08-01T12:41:02.768Z,24.77
2017-08-01T12:42:11.995Z,24.83
2017-08-01T12:43:21.483Z,24.91
2017-08-01T12:44:30.712Z,24.87
2017-08-01T12:45:39.927Z,24.87
2017-08-01T12:46:49.149Z,24.85
2017-08-01T12:47:58.744Z,24.84
2017-08-01T12:49:08.318Z,24.83
2017-08-01T12:50:17.856Z,24.93
2017-08-01T12:51:27.723Z,24.84
2017-08-01T12:52:37.266Z,24.88
2017-08-01T12:53:46.499Z,24.81
2017-08-01T12:54:56.049Z,24.85
2017-08-01T12:56:05.264Z,24.78
2017-08-01T12:57:14.167Z,24.8
2017-08-01T12:58:23.398Z,24.83
2017-08-01T12:59:32.612Z,24.84
2017-08-01T13:00:42.159Z,24.87
2017-08-01T13:01:51.703Z,24.76
2017-08-01T13:03:01.239Z,24.81
2017-08-01T13:04:10.777Z,24.8
2017-08-01T13:05:19.993Z,24.76
2017-08-01T13:06:29.549Z,24.78
2017-08-01T13:07:38.765Z,24.77
2017-08-01T13:08:47.979Z,24.71
2017-08-01T13:09:57.573Z,24.69
2017-08-01T13:11:07.452Z,24.78
2017-08-01T13:12:16.993Z,24.73
2017-08-01T13:13:26.205Z,24.8
2017-08-01T13:14:35.468Z,24.81
2017-08-01T13:15:44.688Z,24.87
2017-08-01T13:16:53.910Z,24.73
2017-08-01T13:18:02.801Z,24.78
2017-08-01T13:19:12.362Z,24.77
2017-08-01T13:20:22.378Z,24.88
2017-08-01T13:21:31.602Z,24.84
2017-08-01T13:22:41.149Z,24.99
2017-08-01T13:23:50.376Z,25.05
2017-08-01T13:24:59.911Z,25.13
2017-08-01T13:26:09.874Z,25.08
2017-08-01T13:27:19.493Z,25.13
2017-08-01T13:28:28.719Z,25.21
2017-08-01T13:29:38.323Z,25.21
2017-08-01T13:30:47.860Z,25.09
2017-08-01T13:31:56.956Z,25.17
2017-08-01T13:33:06.520Z,25.1
2017-08-01T13:34:15.733Z,25.24
2017-08-01T13:35:24.975Z,25.18
2017-08-01T13:36:34.805Z,25.32
2017-08-01T13:37:45.032Z,25.36
2017-08-01T13:38:54.248Z,25.52
2017-08-01T13:40:03.853Z,25.65
2017-08-01T13:41:13.748Z,25.64
2017-08-01T13:42:23.912Z,25.65
2017-08-01T13:43:34.092Z,25.65
2017-08-01T13:44:44.267Z,25.6
2017-08-01T13:45:53.520Z,25.64
2017-08-01T13:47:02.418Z,25.7
2017-08-01T13:48:12.299Z,25.7
2017-08-01T13:49:22.048Z,25.61
2017-08-01T13:50:31.592Z,25.55
2017-08-01T13:51:41.457Z,25.52
2017-08-01T13:52:51.007Z,25.5
2017-08-01T13:54:00.592Z,25.55
2017-08-01T13:55:10.240Z,25.47
2017-08-01T13:56:19.780Z,25.51
2017-08-01T13:57:29.643Z,25.4
2017-08-01T13:58:39.507Z,25.39
2017-08-01T13:59:49.047Z,25.45
2017-08-01T14:00:58.267Z,25.43
2017-08-01T14:02:08.470Z,25.45
2017-08-01T14:03:18.194Z,25.43
2017-08-01T14:04:28.434Z,25.42
2017-08-01T14:05:37.986Z,25.47
2017-08-01T14:06:47.582Z,25.5
2017-08-01T14:07:56.492Z,25.54
2017-08-01T14:09:05.399Z,25.45
2017-08-01T14:10:14.614Z,25.39
2017-08-01T14:11:24.481Z,25.54
2017-08-01T14:12:34.396Z,25.43
2017-08-01T14:13:43.615Z,25.47
2017-08-01T14:14:53.162Z,25.39
2017-08-01T14:16:02.714Z,25.36
2017-08-01T14:17:12.584Z,25.33
2017-08-01T14:18:21.965Z,25.35
2017-08-01T14:19:31.522Z,25.3
2017-08-01T14:20:41.070Z,25.21
2017-08-01T14:21:50.294Z,25.24
2017-08-01T14:22:59.848Z,25.24
2017-08-01T14:24:09.915Z,25.23
2017-08-01T14:25:19.457Z,25.13
2017-08-01T14:26:29.017Z,25.08
2017-08-01T14:27:38.577Z,25.13
2017-08-01T14:28:47.789Z,25.03
2017-08-01T14:29:57.229Z,25.03
2017-08-01T14:31:07.095Z,25.03
2017-08-01T14:32:16.322Z,25.05
2017-08-01T14:33:26.195Z,25.02
2017-08-01T14:34:35.422Z,24.99
2017-08-01T14:35:45.014Z,24.88
2017-08-01T14:36:54.230Z,24.88
2017-08-01T14:38:04.093Z,24.87
2017-08-01T14:39:13.630Z,24.9
2017-08-01T14:40:23.175Z,24.84
2017-08-01T14:41:33.189Z,24.84
2017-08-01T14:42:42.730Z,24.91
2017-08-01T14:43:52.268Z,24.84
2017-08-01T14:45:01.813Z,24.8
2017-08-01T14:46:11.024Z,24.84
2017-08-01T14:47:20.715Z,24.83
2017-08-01T14:48:29.932Z,24.76
2017-08-01T14:49:40.122Z,24.81
2017-08-01T14:50:49.664Z,24.78
2017-08-01T14:51:59.203Z,24.87
2017-08-01T14:53:09.224Z,24.81
2017-08-01T14:54:18.452Z,24.83
2017-08-01T14:55:27.342Z,24.84
2017-08-01T14:56:36.882Z,24.73
2017-08-01T14:57:47.068Z,24.77
2017-08-01T14:58:57.300Z,24.67